createdAt,value
2019-05-12T12:49:18.364Z,1.50
2019-05-12T12:51:46.445Z,2.25
2019-05-12T12:54:14.525Z,1.50
2019-05-12T12:56:42.740Z,1.60
2019-05-12T12:59:14.069Z,1.60
2019-05-12T13:01:40.813Z,1.50
2019-05-12T13:04:08.889Z,1.60
2019-05-12T13:06:37.075Z,1.60
2019-05-12T13:09:17.022Z,1.60
2019-05-12T13:11:36.962Z,1.45
2019-05-12T13:14:05.331Z,1.50
2019-05-12T13:16:34.319Z,1.25
2019-05-12T13:19:03.924Z,1.42
2019-05-12T13:21:33.620Z,1.40
2019-05-12T13:24:03.564Z,1.40
2019-05-12T13:26:31.449Z,1.50
2019-05-12T13:28:59.565Z,1.40
2019-05-12T13:31:27.752Z,1.37
2019-05-12T13:33:56.622Z,1.30
2019-05-12T13:36:29.572Z,1.20
2019-05-12T13:38:54.516Z,1.35
2019-05-12T13:41:22.571Z,1.30
2019-05-12T13:43:55.904Z,1.30
2019-05-12T13:46:20.424Z,1.30
2019-05-12T13:48:49.806Z,1.20
2019-05-12T13:51:18.289Z,1.45
2019-05-12T13:53:50.223Z,1.30
2019-05-12T13:56:19.304Z,1.27
2019-05-12T13:58:46.112Z,1.17
2019-05-12T14:01:19.365Z,1.27
2019-05-12T14:03:46.291Z,1.30
2019-05-12T15:25:05.604Z,1.67
2019-05-12T17:45:34.490Z,1.90
2019-05-12T17:48:07.194Z,1.72
2019-05-12T17:50:34.439Z,1.87
2019-05-12T17:53:04.501Z,2.12
2019-05-12T17:55:32.376Z,2.02
2019-05-12T17:58:00.627Z,1.67
2019-05-12T18:00:29.016Z,1.85
2019-05-12T18:03:14.576Z,1.80
2019-05-12T18:05:27.437Z,1.85
2019-05-12T18:07:55.681Z,1.65
2019-05-12T18:10:24.159Z,1.87
2019-05-12T18:12:53.520Z,1.60
2019-05-12T18:15:25.695Z,1.90
2019-05-12T18:17:53.288Z,1.80
2019-05-12T18:20:23.628Z,2.00
2019-05-12T18:22:53.532Z,2.00
2019-05-12T18:25:30.370Z,1.92
2019-05-12T18:27:54.203Z,2.00
2019-05-12T18:30:23.798Z,2.77
2019-05-12T18:32:55.089Z,1.98
2019-05-12T18:35:22.007Z,2.35
2019-05-12T18:37:54.145Z,1.80
2019-05-12T18:40:24.086Z,2.10
2019-05-12T18:42:53.606Z,2.02
2019-05-12T18:45:23.899Z,2.08
2019-05-12T18:47:53.792Z,1.90
2019-05-12T18:50:27.072Z,2.00
2019-05-12T18:52:51.736Z,2.02
2019-05-12T18:55:20.150Z,2.22
2019-05-12T18:57:49.866Z,2.27
2019-05-12T19:00:24.688Z,2.25
2019-05-12T19:02:54.476Z,2.10
2019-05-12T19:05:30.346Z,1.87
2019-05-12T19:07:54.344Z,1.90
2019-05-12T19:10:25.429Z,2.10
2019-05-12T19:13:01.054Z,2.20
2019-05-12T19:15:25.032Z,2.17
2019-05-12T19:17:54.332Z,2.20
2019-05-12T19:20:24.146Z,2.37
2019-05-12T19:22:59.319Z,2.17
2019-05-12T19:25:23.806Z,2.47
2019-05-12T19:28:04.667Z,2.70
2019-05-12T19:30:25.423Z,2.40
2019-05-12T19:32:54.568Z,2.37
2019-05-12T19:35:23.476Z,1.90
2019-05-12T19:37:53.817Z,2.10
2019-05-12T19:40:21.552Z,1.98
2019-05-12T19:42:53.608Z,2.20
2019-05-12T19:45:21.813Z,2.13
2019-05-12T19:47:50.000Z,1.92
2019-05-12T23:20:14.959Z,4.60
2019-05-12T23:22:43.822Z,4.58
2019-05-12T23:25:20.044Z,4.40
2019-05-12T23:27:44.045Z,4.10
2019-05-12T23:30:13.424Z,4.50
2019-05-12T23:32:42.922Z,4.28
2019-05-12T23:35:11.349Z,4.33
2019-05-12T23:37:40.326Z,4.28
2019-05-12T23:40:11.634Z,4.12
2019-05-12T23:42:38.509Z,4.75
2019-05-12T23:45:06.625Z,4.47
2019-05-12T23:47:34.700Z,4.60
2019-05-12T23:50:04.045Z,5.03
2019-05-12T23:52:34.504Z,4.72
2019-05-12T23:55:02.193Z,4.47
2019-05-12T23:57:30.256Z,4.17
2019-05-12T23:59:58.361Z,4.70
